Medicine Lodge, Kansas
Current Conditions -  °F | °C
As of 5:15 PM on Wednesday 22 Oct 2014 (Local Time) from KPTT Reporting Station
Light Rain Light Rain  
Wind Chill: 61°   Ceiling: 6000
Heat Index: 61°   Visibility: 10mi
Dew Point: 57°   Wind: 15mph
Humidity: 88%   Direction: 190°S
Pressure: 30.05"   Gusts: 20mph
Location:  37.28°N, 98.58°W
Report Text: KPTT 222215Z AUTO 19013G17KT 10SM -RA SCT032 BKN060 OVC110 16/14 A3005 RMK AO2
Loading
Personal Weather Stations






























Interactive Weather Map
Tropical Storm Tracking
New forecast layout! Learn more

10-Day Weather Forecast

Advertisements
Track Severe Weather on mobile